Time;durP1;ratioP1;P1;durP2;ratioP2;P2;SDS_P1;SDS_P2;PMS_P1;PMS_P2;Temp;Humidity;BMP_temperature;BMP_pressure;BME280_temperature;BME280_humidity;BME280_pressure;Samples;Min_cycle;Max_cycle;Signal;HPM_P1;HPM_P2
2023/03/29 00:03:33;;;;;;;4.65;1.77;;;14.50;68.70;;;;;;10334920;28;20137;-53
2023/03/29 00:08:36;;;;;;;2.00;0.77;;;14.50;68.10;;;;;;10326666;28;20023;-51
2023/03/29 00:13:38;;;;;;;3.25;0.88;;;14.50;68.10;;;;;;10327417;28;20022;-50
2023/03/29 00:18:39;;;;;;;3.67;1.42;;;14.50;68.70;;;;;;10326633;28;20034;-50
2023/03/29 00:23:40;;;;;;;3.47;1.38;;;14.50;68.10;;;;;;10326654;28;20560;-52
2023/03/29 00:28:41;;;;;;;1.13;0.60;;;14.50;68.10;;;;;;10325768;28;20335;-53
2023/03/29 00:33:42;;;;;;;1.75;0.70;;;14.50;68.10;;;;;;10326254;28;20038;-52
2023/03/29 00:38:43;;;;;;;1.75;0.80;;;14.50;67.70;;;;;;10325454;28;20038;-52
2023/03/29 00:44:02;;;;;;;4.63;0.90;;;14.50;67.60;;;;;;10325588;28;20568;-54
2023/03/29 00:49:14;;;;;;;2.63;0.85;;;14.50;67.70;;;;;;10325461;28;20026;-53
2023/03/29 00:54:17;;;;;;;6.03;2.08;;;14.40;68.20;;;;;;10325517;28;20490;-50
2023/03/29 00:59:23;;;;;;;1.33;0.82;;;14.50;67.70;;;;;;10330837;28;20637;-51
2023/03/29 01:04:50;;;;;;;1.73;0.70;;;14.40;67.60;;;;;;10326463;28;20452;-54
2023/03/29 01:10:11;;;;;;;2.72;1.23;;;14.40;67.60;;;;;;10323363;28;20033;-52
2023/03/29 01:15:18;;;;;;;1.27;0.68;;;14.40;67.80;;;;;;10324327;28;20094;-53
2023/03/29 01:21:03;;;;;;;2.20;1.23;;;14.40;67.80;;;;;;10322919;28;20102;-52
2023/03/29 01:26:28;;;;;;;1.05;0.60;;;14.40;68.00;;;;;;10324637;28;20473;-53
2023/03/29 01:31:35;;;;;;;1.40;0.60;;;14.40;68.00;;;;;;10324387;28;20026;-53
2023/03/29 01:37:08;;;;;;;2.50;0.70;;;14.40;68.00;;;;;;10322116;28;20049;-52
2023/03/29 01:42:29;;;;;;;1.42;0.70;;;14.40;68.00;;;;;;10323317;28;20080;-52
2023/03/29 01:47:38;;;;;;;2.05;0.80;;;14.40;68.00;;;;;;10321826;28;20535;-53
2023/03/29 01:52:53;;;;;;;2.17;1.02;;;14.30;68.00;;;;;;10323008;28;20105;-53
2023/03/29 01:57:55;;;;;;;4.07;1.00;;;14.30;68.00;;;;;;10322729;28;20022;-51
2023/03/29 02:03:01;;;;;;;1.05;0.70;;;14.30;68.00;;;;;;10331205;28;20054;-53
2023/03/29 02:08:06;;;;;;;2.47;0.80;;;14.30;68.00;;;;;;10322579;28;20022;-52
2023/03/29 02:13:06;;;;;;;3.17;0.98;;;14.30;68.00;;;;;;10320934;28;20026;-52
2023/03/29 02:18:07;;;;;;;1.65;0.80;;;14.30;68.00;;;;;;10321037;28;20100;-51
2023/03/29 02:23:16;;;;;;;1.60;0.77;;;14.30;68.00;;;;;;10320964;28;20400;-51
2023/03/29 02:28:17;;;;;;;1.52;0.60;;;14.30;68.00;;;;;;10321947;28;20481;-54
2023/03/29 02:34:03;;;;;;;2.40;0.77;;;14.30;68.60;;;;;;10322006;28;20034;-53
2023/03/29 02:39:04;;;;;;;2.03;0.70;;;14.30;68.00;;;;;;10319799;28;20034;-52
2023/03/29 02:44:10;;;;;;;3.65;1.25;;;14.30;67.70;;;;;;10321776;28;20038;-49
2023/03/29 02:49:11;;;;;;;0.93;0.50;;;14.50;67.50;;;;;;10319872;28;20019;-53
2023/03/29 02:54:22;;;;;;;1.45;0.75;;;14.60;67.40;;;;;;10303764;28;20116;-52
2023/03/29 02:59:23;;;;;;;1.50;0.60;;;14.80;66.70;;;;;;10327883;28;20076;-52
2023/03/29 03:04:24;;;;;;;1.35;0.90;;;15.10;66.00;;;;;;10321854;28;20045;-50
2023/03/29 03:09:26;;;;;;;0.73;0.45;;;15.30;65.10;;;;;;10320411;28;20022;-53
2023/03/29 03:14:27;;;;;;;2.22;0.60;;;15.70;63.80;;;;;;10320936;28;20029;-52
2023/03/29 03:19:27;;;;;;;0.88;0.50;;;16.00;63.00;;;;;;10319868;28;20551;-52
2023/03/29 03:24:28;;;;;;;1.23;0.60;;;16.10;62.50;;;;;;10320039;28;20098;-53
2023/03/29 03:29:29;;;;;;;1.65;0.57;;;16.30;62.10;;;;;;10320441;28;20113;-50
2023/03/29 03:34:29;;;;;;;0.90;0.50;;;16.50;61.70;;;;;;10321016;28;20060;-50
2023/03/29 03:39:30;;;;;;;2.15;0.60;;;16.60;61.40;;;;;;10328066;28;20173;-51
2023/03/29 03:44:31;;;;;;;1.90;0.60;;;16.70;61.40;;;;;;10328767;28;20181;-51
2023/03/29 03:49:31;;;;;;;0.90;0.40;;;16.70;61.30;;;;;;10327568;28;20110;-48
2023/03/29 03:54:33;;;;;;;1.58;0.68;;;16.80;61.80;;;;;;10327787;28;20033;-52
2023/03/29 03:59:33;;;;;;;1.20;0.52;;;16.80;61.20;;;;;;10336041;28;20392;-54
2023/03/29 04:04:34;;;;;;;0.82;0.50;;;16.80;61.10;;;;;;10326760;28;20046;-53
2023/03/29 04:09:35;;;;;;;0.98;0.60;;;16.90;61.10;;;;;;10314284;28;20130;-52
2023/03/29 04:14:35;;;;;;;1.52;0.50;;;16.80;61.20;;;;;;10325500;28;20022;-53
2023/03/29 04:19:36;;;;;;;0.70;0.52;;;16.80;61.30;;;;;;10326552;28;20065;-51
2023/03/29 04:24:37;;;;;;;1.15;0.75;;;16.80;61.60;;;;;;10326170;28;20515;-53
2023/03/29 04:29:37;;;;;;;1.13;0.60;;;16.60;62.00;;;;;;10326058;28;20098;-52
2023/03/29 04:34:38;;;;;;;1.05;0.55;;;16.50;62.40;;;;;;10326183;28;20065;-53
2023/03/29 04:39:39;;;;;;;1.35;0.70;;;16.50;62.70;;;;;;10328459;28;20027;-50
2023/03/29 04:44:42;;;;;;;1.67;1.00;;;16.40;62.90;;;;;;10325172;28;20026;-51
2023/03/29 04:49:43;;;;;;;1.90;1.60;;;16.40;63.00;;;;;;10326002;28;20034;-52
2023/03/29 04:54:43;;;;;;;2.45;2.00;;;16.40;63.20;;;;;;10327162;28;20101;-53
2023/03/29 04:59:44;;;;;;;4.88;4.47;;;16.30;63.20;;;;;;10328254;28;20050;-52
2023/03/29 05:04:45;;;;;;;6.85;6.00;;;16.40;63.90;;;;;;10326413;28;20151;-52
2023/03/29 05:09:46;;;;;;;8.52;6.30;;;16.50;63.90;;;;;;10326755;28;20014;-48
2023/03/29 05:14:46;;;;;;;8.48;6.95;;;16.50;65.00;;;;;;10325896;28;20466;-54
2023/03/29 05:19:47;;;;;;;10.98;7.20;;;16.60;64.90;;;;;;10324128;28;20302;-54
2023/03/29 05:24:49;;;;;;;11.25;7.07;;;16.60;65.10;;;;;;10323766;28;20100;-51
2023/03/29 05:29:49;;;;;;;11.82;6.80;;;16.60;66.10;;;;;;10319904;28;20537;-52
2023/03/29 05:34:50;;;;;;;11.75;8.27;;;16.50;66.00;;;;;;10322075;28;20030;-53
2023/03/29 05:39:51;;;;;;;16.90;8.52;;;16.60;66.90;;;;;;10324255;28;20704;-50
2023/03/29 05:44:52;;;;;;;15.02;9.23;;;16.50;66.80;;;;;;10324741;28;20157;-53
2023/03/29 05:49:53;;;;;;;14.88;7.55;;;16.40;66.30;;;;;;10326568;28;20417;-53
2023/03/29 05:54:54;;;;;;;17.85;8.05;;;16.40;66.40;;;;;;10325474;28;20113;-53
2023/03/29 05:59:55;;;;;;;14.00;8.20;;;16.40;66.50;;;;;;10336948;28;20120;-50
2023/03/29 06:04:56;;;;;;;15.20;7.85;;;16.40;65.70;;;;;;10325851;28;20057;-52
2023/03/29 06:09:56;;;;;;;16.95;7.97;;;16.40;65.80;;;;;;10322060;28;20025;-52
2023/03/29 06:15:02;;;;;;;21.25;7.40;;;16.30;65.70;;;;;;10322697;28;20022;-53
2023/03/29 06:20:09;;;;;;;13.50;6.93;;;16.20;66.10;;;;;;10325103;28;20022;-54
2023/03/29 06:25:11;;;;;;;15.75;6.47;;;16.00;66.10;;;;;;10324121;28;20313;-52
2023/03/29 06:30:14;;;;;;;10.35;6.00;;;16.00;66.30;;;;;;10322939;28;20110;-50
2023/03/29 06:35:15;;;;;;;12.70;6.40;;;15.90;66.10;;;;;;10322520;28;20105;-53
2023/03/29 06:40:18;;;;;;;7.05;5.63;;;15.90;66.80;;;;;;10323294;28;20485;-50
2023/03/29 06:45:19;;;;;;;7.78;5.38;;;15.90;66.10;;;;;;10322321;28;20038;-51
2023/03/29 06:50:22;;;;;;;9.60;5.95;;;15.90;65.90;;;;;;10316800;28;20018;-51
2023/03/29 06:55:24;;;;;;;7.55;4.65;;;15.90;65.90;;;;;;10317926;28;20108;-51
2023/03/29 07:00:28;;;;;;;9.75;4.88;;;16.00;65.50;;;;;;10317856;28;20117;-53
2023/03/29 07:05:30;;;;;;;9.85;5.32;;;16.10;65.10;;;;;;10323357;28;20046;-53
2023/03/29 07:10:37;;;;;;;7.93;5.28;;;16.10;65.10;;;;;;10322811;28;20057;-52
2023/03/29 07:15:42;;;;;;;7.18;4.40;;;16.10;65.20;;;;;;10322973;28;20022;-54
2023/03/29 07:20:43;;;;;;;5.30;4.25;;;16.00;65.30;;;;;;10323861;28;20038;-53
2023/03/29 07:25:45;;;;;;;9.25;4.60;;;16.10;65.30;;;;;;10323781;28;20042;-54
2023/03/29 07:30:45;;;;;;;5.75;3.72;;;16.10;65.30;;;;;;10322729;28;20096;-55
2023/03/29 07:35:46;;;;;;;5.25;3.35;;;16.10;65.30;;;;;;10309570;28;20161;-53
2023/03/29 07:40:47;;;;;;;9.20;4.00;;;16.20;65.10;;;;;;10322354;28;20019;-54
2023/03/29 07:45:47;;;;;;;6.30;3.35;;;16.10;65.10;;;;;;10322554;28;20033;-51
2023/03/29 07:50:48;;;;;;;5.43;4.10;;;16.10;65.30;;;;;;10323464;28;20438;-50
2023/03/29 07:55:51;;;;;;;5.65;3.50;;;16.10;65.10;;;;;;10323126;28;20101;-49
2023/03/29 08:00:52;;;;;;;5.22;2.88;;;16.10;65.10;;;;;;10324516;28;20584;-54
2023/03/29 08:05:52;;;;;;;7.25;3.17;;;16.10;65.20;;;;;;10322705;28;20080;-53
2023/03/29 08:10:53;;;;;;;3.58;2.50;;;16.10;65.30;;;;;;10322965;28;20026;-55
2023/03/29 08:15:54;;;;;;;3.97;2.58;;;16.10;64.80;;;;;;10323040;28;20105;-53
2023/03/29 08:20:55;;;;;;;5.10;2.88;;;16.00;65.20;;;;;;10322372;28;20105;-52
2023/03/29 08:25:56;;;;;;;7.28;2.22;;;16.10;66.00;;;;;;10329611;28;20117;-55
2023/03/29 08:30:56;;;;;;;14.57;3.13;;;16.20;65.80;;;;;;10329686;28;20057;-53
2023/03/29 08:35:57;;;;;;;11.80;3.25;;;16.20;66.70;;;;;;10329847;28;20037;-54
2023/03/29 08:40:58;;;;;;;13.90;3.30;;;16.20;67.20;;;;;;10329681;28;20466;-51
2023/03/29 08:46:47;;;;;;;21.38;4.47;;;16.20;67.30;;;;;;10329056;28;20960;-53
2023/03/29 08:52:01;;;;;;;17.35;4.30;;;16.20;67.40;;;;;;10327821;28;20476;-54
2023/03/29 08:57:18;;;;;;;13.27;4.20;;;16.20;67.10;;;;;;10326483;28;20137;-56
2023/03/29 09:02:25;;;;;;;10.85;3.22;;;16.00;66.70;;;;;;10325475;28;20052;-54
2023/03/29 09:07:26;;;;;;;19.08;5.43;;;16.00;67.40;;;;;;10326547;28;20041;-54
2023/03/29 09:13:07;;;;;;;14.95;3.38;;;15.90;67.30;;;;;;10326997;28;20043;-51
2023/03/29 09:18:18;;;;;;;21.52;4.63;;;15.80;67.30;;;;;;10340413;28;20041;-53
2023/03/29 09:23:51;;;;;;;14.18;3.05;;;15.80;67.20;;;;;;10327536;28;21009;-53
2023/03/29 09:29:18;;;;;;;11.93;3.03;;;15.80;67.10;;;;;;10323629;28;20549;-53
2023/03/29 09:34:28;;;;;;;7.70;2.70;;;15.70;67.10;;;;;;10326449;28;20042;-56
2023/03/29 09:39:29;;;;;;;12.20;3.22;;;15.70;67.20;;;;;;10324483;28;20026;-55
2023/03/29 09:44:37;;;;;;;9.63;2.83;;;15.60;67.10;;;;;;10325768;28;20023;-55
2023/03/29 09:49:44;;;;;;;19.30;4.45;;;15.60;67.00;;;;;;10326455;28;20026;-55
2023/03/29 09:54:44;;;;;;;8.32;2.53;;;15.60;67.10;;;;;;10325949;28;20476;-55
2023/03/29 09:59:50;;;;;;;12.77;3.33;;;15.60;67.20;;;;;;10326305;28;20077;-56
2023/03/29 10:05:02;;;;;;;10.40;4.40;;;15.60;67.10;;;;;;10324128;28;20042;-54
2023/03/29 10:10:09;;;;;;;7.30;2.55;;;15.60;67.10;;;;;;10325599;28;20049;-54
2023/03/29 10:15:13;;;;;;;9.50;2.95;;;15.60;67.10;;;;;;10323158;28;20087;-56
2023/03/29 10:20:18;;;;;;;10.93;2.90;;;15.60;67.20;;;;;;10323635;28;20378;-55
2023/03/29 10:25:28;;;;;;;13.77;4.00;;;15.80;67.20;;;;;;10321326;28;20050;-52
2023/03/29 10:30:36;;;;;;;9.23;4.00;;;15.90;67.90;;;;;;10324896;28;20037;-56
2023/03/29 10:35:40;;;;;;;16.20;4.15;;;16.00;67.50;;;;;;10324692;28;20027;-56
2023/03/29 10:40:47;;;;;;;9.48;3.47;;;16.10;67.80;;;;;;10323670;28;20053;-53
2023/03/29 10:45:54;;;;;;;15.80;4.15;;;16.20;68.10;;;;;;10322174;28;20031;-56
2023/03/29 10:51:00;;;;;;;11.40;4.60;;;16.30;68.70;;;;;;10323820;28;20029;-54
2023/03/29 10:56:11;;;;;;;11.95;3.08;;;16.20;68.90;;;;;;10323178;28;20041;-55
2023/03/29 11:01:39;;;;;;;12.32;3.33;;;16.00;68.50;;;;;;10316063;28;20042;-54
2023/03/29 11:07:09;;;;;;;15.95;3.42;;;16.00;68.20;;;;;;10273177;28;20061;-54
2023/03/29 11:12:18;;;;;;;11.68;3.53;;;16.00;68.30;;;;;;10323552;28;20615;-55
2023/03/29 11:17:27;;;;;;;19.35;4.60;;;15.90;68.40;;;;;;10322649;28;20097;-55
2023/03/29 11:22:34;;;;;;;26.45;3.90;;;15.80;68.50;;;;;;10322113;28;20026;-53
2023/03/29 11:27:46;;;;;;;10.77;3.40;;;15.80;68.50;;;;;;10320775;28;20037;-55
2023/03/29 11:33:21;;;;;;;7.20;2.72;;;15.80;68.60;;;;;;10319409;28;20045;-55
2023/03/29 11:38:48;;;;;;;6.72;3.00;;;15.80;68.60;;;;;;10321247;28;20113;-56
2023/03/29 11:44:16;;;;;;;12.57;2.88;;;15.70;68.40;;;;;;10320191;28;20026;-55
2023/03/29 11:49:28;;;;;;;17.25;3.38;;;15.70;68.60;;;;;;10319737;28;20014;-54
2023/03/29 11:54:44;;;;;;;10.20;2.88;;;15.70;69.30;;;;;;10322060;28;20027;-53
2023/03/29 11:59:57;;;;;;;11.35;2.70;;;15.70;68.40;;;;;;10336667;28;20049;-55
2023/03/29 12:05:04;;;;;;;8.00;2.67;;;15.70;68.30;;;;;;10315034;28;20462;-55
2023/03/29 12:10:37;;;;;;;18.25;3.40;;;15.70;68.20;;;;;;10323732;28;20029;-55
2023/03/29 12:15:52;;;;;;;8.60;2.20;;;15.60;68.20;;;;;;10326150;28;20088;-55
2023/03/29 12:21:02;;;;;;;11.40;3.72;;;15.60;68.20;;;;;;10329371;28;20378;-52
2023/03/29 12:26:27;;;;;;;7.13;3.10;;;15.60;68.00;;;;;;10327560;28;20038;-54
2023/03/29 12:31:51;;;;;;;8.85;2.58;;;15.60;68.20;;;;;;10328183;28;20454;-53
2023/03/29 12:37:30;;;;;;;6.75;2.65;;;15.60;67.90;;;;;;10328514;28;20022;-53
2023/03/29 12:42:31;;;;;;;12.73;2.90;;;15.70;67.90;;;;;;10326968;28;20027;-55
2023/03/29 12:47:43;;;;;;;10.27;3.17;;;15.60;68.00;;;;;;10327327;28;20592;-55
2023/03/29 12:52:44;;;;;;;9.57;3.80;;;15.70;68.10;;;;;;10341468;28;20015;-54
2023/03/29 12:58:09;;;;;;;7.25;3.03;;;15.70;67.90;;;;;;10327417;28;20669;-53
2023/03/29 13:03:45;;;;;;;10.50;4.00;;;15.60;68.30;;;;;;10327424;28;20044;-53
2023/03/29 13:09:02;;;;;;;14.95;3.75;;;15.70;69.30;;;;;;10327782;28;20104;-55
2023/03/29 13:14:16;;;;;;;19.90;4.88;;;15.80;68.20;;;;;;10327703;28;20754;-54
2023/03/29 13:20:27;;;;;;;15.23;4.22;;;15.80;68.10;;;;;;10326951;28;20022;-53
2023/03/29 13:26:24;;;;;;;23.90;5.20;;;15.80;68.20;;;;;;10320646;28;20042;-54
2023/03/29 13:31:43;;;;;;;32.00;8.40;;;15.80;68.40;;;;;;10325801;28;20029;-55
2023/03/29 13:37:23;;;;;;;14.75;4.82;;;16.00;68.90;;;;;;10326564;28;20832;-55
2023/03/29 13:42:55;;;;;;;26.00;5.00;;;15.90;68.40;;;;;;10332147;28;20439;-53
2023/03/29 13:48:23;;;;;;;23.45;5.28;;;15.90;68.20;;;;;;10290748;28;20034;-54
2023/03/29 13:53:33;;;;;;;24.75;5.38;;;15.90;68.70;;;;;;10328322;28;20026;-56
2023/03/29 13:58:47;;;;;;;20.25;5.00;;;16.00;68.30;;;;;;10324052;28;20110;-53
2023/03/29 14:03:50;;;;;;;18.33;5.35;;;16.20;67.80;;;;;;10322043;28;20095;-55
2023/03/29 14:08:51;;;;;;;33.72;5.75;;;16.30;67.50;;;;;;10324388;28;20022;-54
2023/03/29 14:13:55;;;;;;;23.83;6.22;;;16.40;66.90;;;;;;10324200;28;20148;-55
2023/03/29 14:19:03;;;;;;;33.70;6.05;;;16.50;67.00;;;;;;10323001;28;20026;-55
2023/03/29 14:24:09;;;;;;;28.00;6.20;;;16.60;66.90;;;;;;10322303;28;20038;-55
2023/03/29 14:29:10;;;;;;;38.50;6.25;;;16.70;67.10;;;;;;10322001;28;20029;-55
2023/03/29 14:34:14;;;;;;;35.25;6.15;;;16.80;66.80;;;;;;10322162;28;20023;-54
2023/03/29 14:39:18;;;;;;;33.55;7.75;;;16.70;67.10;;;;;;10322752;28;20101;-56
2023/03/29 14:44:25;;;;;;;23.00;5.47;;;16.70;67.40;;;;;;10322708;28;20441;-55
2023/03/29 14:49:27;;;;;;;32.75;6.25;;;16.70;67.40;;;;;;10322121;28;20025;-56
2023/03/29 14:54:31;;;;;;;44.72;10.82;;;16.70;67.60;;;;;;10322706;28;20528;-56
2023/03/29 14:59:40;;;;;;;47.60;11.23;;;16.80;68.60;;;;;;10328570;28;20025;-56
2023/03/29 15:04:40;;;;;;;64.30;15.23;;;17.20;70.10;;;;;;10323121;28;20074;-55
2023/03/29 15:09:44;;;;;;;47.42;13.40;;;17.30;69.30;;;;;;10325119;28;20058;-56
2023/03/29 15:14:51;;;;;;;42.65;12.02;;;17.20;68.20;;;;;;10322907;28;20029;-55
2023/03/29 15:20:12;;;;;;;42.83;10.55;;;17.00;68.80;;;;;;10324227;28;20019;-55
2023/03/29 15:25:18;;;;;;;30.38;9.13;;;17.00;68.80;;;;;;10322452;28;20137;-54
2023/03/29 15:30:19;;;;;;;28.73;8.05;;;16.90;68.70;;;;;;10323109;28;20038;-55
2023/03/29 15:35:24;;;;;;;31.60;8.07;;;16.70;68.80;;;;;;10331451;28;20366;-55
2023/03/29 15:40:26;;;;;;;20.95;6.90;;;16.90;71.00;;;;;;10329272;28;20096;-55
2023/03/29 15:45:27;;;;;;;22.70;6.75;;;16.90;71.10;;;;;;10331969;28;20424;-57
2023/03/29 15:50:28;;;;;;;24.50;7.97;;;16.90;70.40;;;;;;10331520;28;20076;-56
2023/03/29 15:55:28;;;;;;;24.35;5.95;;;16.90;71.00;;;;;;10331276;28;20433;-57
2023/03/29 16:00:29;;;;;;;27.73;8.20;;;16.80;70.60;;;;;;10331192;28;20034;-54
2023/03/29 16:05:30;;;;;;;19.98;6.32;;;16.70;71.10;;;;;;10327929;28;20042;-55
2023/03/29 16:10:30;;;;;;;32.35;5.57;;;16.70;71.40;;;;;;10330226;28;20042;-55
2023/03/29 16:15:32;;;;;;;22.02;5.20;;;16.70;70.90;;;;;;10296240;28;20115;-53
2023/03/29 16:20:33;;;;;;;19.80;6.07;;;16.60;71.10;;;;;;10342872;28;20035;-55
2023/03/29 16:25:38;;;;;;;29.05;6.55;;;16.50;71.40;;;;;;10328007;28;20521;-54
2023/03/29 16:30:39;;;;;;;29.80;7.80;;;16.40;71.70;;;;;;10329095;28;20019;-54
2023/03/29 16:35:40;;;;;;;21.67;5.28;;;16.40;71.90;;;;;;10306034;28;20493;-54
2023/03/29 16:40:41;;;;;;;21.08;5.57;;;16.40;72.20;;;;;;10329133;28;20019;-54
2023/03/29 16:45:42;;;;;;;21.15;6.50;;;16.30;72.10;;;;;;10304124;28;20384;-54
2023/03/29 16:50:47;;;;;;;18.52;4.32;;;16.20;72.80;;;;;;10320283;28;20677;-56
2023/03/29 16:55:48;;;;;;;11.82;3.90;;;16.20;72.00;;;;;;10322226;28;20014;-55
2023/03/29 17:00:52;;;;;;;15.63;4.78;;;16.20;72.00;;;;;;10337011;28;20026;-55
2023/03/29 17:05:53;;;;;;;19.30;4.53;;;16.10;72.00;;;;;;10328510;28;20034;-56
2023/03/29 17:10:54;;;;;;;10.85;4.00;;;16.10;71.80;;;;;;10328309;28;20383;-56
2023/03/29 17:15:55;;;;;;;14.27;3.70;;;16.10;71.60;;;;;;10327678;28;20034;-55
2023/03/29 17:20:57;;;;;;;8.70;2.78;;;16.20;71.30;;;;;;10324750;28;20114;-56
2023/03/29 17:25:58;;;;;;;14.07;4.50;;;16.20;71.10;;;;;;10327388;28;20040;-55
2023/03/29 17:31:03;;;;;;;13.20;3.40;;;16.30;70.80;;;;;;10327757;28;20025;-56
2023/03/29 17:36:05;;;;;;;14.02;3.58;;;16.30;70.40;;;;;;10327458;28;20022;-56
2023/03/29 17:41:07;;;;;;;13.55;3.17;;;16.40;70.00;;;;;;10326363;28;20101;-55
2023/03/29 17:46:07;;;;;;;10.18;2.92;;;16.50;69.70;;;;;;10326557;28;20385;-56
2023/03/29 17:51:08;;;;;;;17.50;4.55;;;16.60;69.50;;;;;;10326783;28;20026;-56
2023/03/29 17:56:08;;;;;;;15.05;3.63;;;16.60;69.20;;;;;;10326466;28;20080;-56
2023/03/29 18:01:11;;;;;;;9.25;3.58;;;16.70;69.00;;;;;;10326104;28;20145;-56
2023/03/29 18:06:12;;;;;;;14.40;5.15;;;16.70;69.30;;;;;;10324750;28;20525;-56
2023/03/29 18:11:21;;;;;;;8.18;3.60;;;16.60;69.40;;;;;;10324279;28;20109;-56
2023/03/29 18:16:22;;;;;;;11.63;5.00;;;16.60;69.70;;;;;;10325541;28;20105;-56
2023/03/29 18:21:24;;;;;;;7.63;4.28;;;16.70;69.50;;;;;;10325376;28;20037;-55
2023/03/29 18:26:27;;;;;;;8.93;4.32;;;16.70;69.70;;;;;;10324278;28;20045;-56
2023/03/29 18:31:28;;;;;;;7.78;4.75;;;16.70;70.00;;;;;;10324678;28;20533;-56
2023/03/29 18:36:29;;;;;;;9.32;4.85;;;16.60;70.20;;;;;;10325011;28;20018;-55
2023/03/29 18:41:33;;;;;;;9.95;4.60;;;16.50;70.50;;;;;;10324721;28;20026;-55
2023/03/29 18:46:34;;;;;;;9.32;4.43;;;16.40;70.90;;;;;;10323538;28;20120;-56
2023/03/29 18:51:35;;;;;;;8.02;4.80;;;16.40;70.80;;;;;;10323639;28;20805;-55
2023/03/29 18:56:35;;;;;;;5.03;3.88;;;16.40;70.80;;;;;;10323537;28;20029;-55
2023/03/29 19:01:36;;;;;;;9.50;4.72;;;16.50;70.70;;;;;;10322677;28;20133;-56
2023/03/29 19:06:37;;;;;;;8.57;3.90;;;16.40;70.60;;;;;;10320728;28;20541;-56
2023/03/29 19:11:37;;;;;;;7.00;3.78;;;16.40;70.70;;;;;;10321383;28;20117;-55
2023/03/29 19:16:38;;;;;;;11.20;4.15;;;16.30;70.80;;;;;;10320814;28;20032;-56
2023/03/29 19:21:40;;;;;;;8.15;4.28;;;16.40;70.50;;;;;;10320882;28;20022;-56
2023/03/29 19:26:42;;;;;;;7.10;3.78;;;16.50;70.10;;;;;;10320345;28;20065;-54
2023/03/29 19:31:43;;;;;;;9.63;4.10;;;16.50;70.00;;;;;;10318993;28;20033;-55
2023/03/29 19:36:43;;;;;;;8.80;3.95;;;16.40;70.10;;;;;;10322079;28;20041;-56
2023/03/29 19:41:44;;;;;;;6.97;4.25;;;16.40;70.20;;;;;;10323522;28;20117;-55
2023/03/29 19:46:45;;;;;;;4.75;3.58;;;16.30;70.30;;;;;;10323745;28;20109;-56
2023/03/29 19:51:46;;;;;;;9.13;4.25;;;16.30;70.50;;;;;;10323669;28;20157;-54
2023/03/29 19:56:47;;;;;;;11.55;4.60;;;16.20;70.50;;;;;;10323436;28;20024;-55
2023/03/29 20:01:50;;;;;;;6.50;3.47;;;16.20;70.70;;;;;;10331567;28;20061;-55
2023/03/29 20:06:51;;;;;;;6.78;4.13;;;16.10;70.70;;;;;;10323146;28;20493;-55
2023/03/29 20:11:52;;;;;;;6.72;3.97;;;16.10;70.70;;;;;;10321872;28;20030;-56
2023/03/29 20:16:53;;;;;;;6.43;4.30;;;16.10;70.70;;;;;;10324156;28;20037;-54
2023/03/29 20:21:56;;;;;;;6.80;4.00;;;16.00;70.70;;;;;;10330338;28;20385;-55
2023/03/29 20:26:57;;;;;;;6.72;3.35;;;16.00;70.70;;;;;;10330500;28;20062;-54
2023/03/29 20:31:57;;;;;;;5.65;3.22;;;16.00;70.70;;;;;;10329853;28;20121;-55
2023/03/29 20:36:59;;;;;;;8.95;3.80;;;15.90;70.70;;;;;;10328449;28;20072;-55
2023/03/29 20:42:00;;;;;;;5.78;2.92;;;15.90;70.80;;;;;;10329697;28;20361;-55
2023/03/29 20:47:05;;;;;;;7.43;3.17;;;15.90;70.90;;;;;;10328196;28;20041;-55
2023/03/29 20:52:14;;;;;;;5.25;2.78;;;15.90;70.90;;;;;;10329355;28;20101;-55
2023/03/29 20:57:19;;;;;;;3.65;2.63;;;15.80;70.90;;;;;;10328997;28;20112;-55
2023/03/29 21:02:21;;;;;;;4.65;2.55;;;15.80;70.90;;;;;;10338903;28;20046;-56
2023/03/29 21:07:22;;;;;;;4.90;2.90;;;15.80;70.90;;;;;;10328511;28;20352;-55
2023/03/29 21:12:22;;;;;;;5.38;2.63;;;15.80;71.00;;;;;;10328541;28;20030;-56
2023/03/29 21:17:23;;;;;;;5.50;2.55;;;15.70;71.00;;;;;;10343182;28;20049;-53
2023/03/29 21:22:24;;;;;;;3.50;2.33;;;15.70;71.00;;;;;;10327961;28;20056;-55
2023/03/29 21:27:25;;;;;;;3.92;2.63;;;15.70;71.00;;;;;;10327563;28;20069;-54
2023/03/29 21:32:25;;;;;;;5.38;3.03;;;15.70;71.20;;;;;;10327332;28;20109;-54
2023/03/29 21:37:26;;;;;;;5.35;2.80;;;15.70;71.20;;;;;;10327379;28;20030;-56
2023/03/29 21:42:27;;;;;;;5.43;2.92;;;15.70;71.10;;;;;;10327599;28;20118;-55
2023/03/29 21:47:28;;;;;;;5.10;3.22;;;15.70;71.10;;;;;;10327397;28;20038;-55
2023/03/29 21:52:28;;;;;;;3.67;2.30;;;15.60;71.10;;;;;;10325646;28;20440;-55
2023/03/29 21:57:29;;;;;;;4.85;2.53;;;15.60;71.10;;;;;;10326862;28;20071;-56
2023/03/29 22:02:30;;;;;;;3.75;2.67;;;15.60;71.10;;;;;;10337184;28;20177;-56
2023/03/29 22:07:34;;;;;;;3.35;2.63;;;15.60;71.20;;;;;;10325050;28;20070;-55
2023/03/29 22:12:36;;;;;;;3.15;2.10;;;15.60;71.10;;;;;;10324939;28;20081;-55
2023/03/29 22:17:37;;;;;;;3.83;2.03;;;15.60;71.20;;;;;;10326403;28;20554;-54
2023/03/29 22:22:48;;;;;;;3.58;2.55;;;15.60;71.20;;;;;;10325872;28;20049;-54
2023/03/29 22:27:49;;;;;;;4.32;2.95;;;15.50;71.00;;;;;;10325476;28;20105;-55
2023/03/29 22:32:49;;;;;;;4.20;2.33;;;15.50;71.00;;;;;;10325451;28;20023;-56
2023/03/29 22:37:50;;;;;;;4.15;2.50;;;15.50;71.00;;;;;;10325339;28;20169;-55
2023/03/29 22:42:51;;;;;;;3.03;2.10;;;15.50;70.90;;;;;;10324080;28;20106;-54
2023/03/29 22:47:51;;;;;;;3.00;1.90;;;15.50;70.90;;;;;;10324801;28;20022;-56
2023/03/29 22:52:52;;;;;;;4.45;2.10;;;15.50;70.90;;;;;;10324632;28;20046;-55
2023/03/29 22:57:53;;;;;;;3.33;2.00;;;15.50;70.90;;;;;;10323467;28;20049;-56
2023/03/29 23:02:53;;;;;;;3.40;2.38;;;15.50;70.90;;;;;;10332774;28;20494;-56
2023/03/29 23:07:54;;;;;;;3.28;1.42;;;15.50;70.90;;;;;;10324448;28;20042;-55
2023/03/29 23:13:09;;;;;;;5.15;1.95;;;15.50;70.90;;;;;;10322889;28;20019;-55
2023/03/29 23:18:14;;;;;;;2.47;2.03;;;15.50;70.80;;;;;;10324110;28;20046;-54
2023/03/29 23:23:16;;;;;;;3.00;1.83;;;15.40;70.80;;;;;;10324096;28;20022;-54
2023/03/29 23:28:22;;;;;;;2.92;1.70;;;15.40;70.70;;;;;;10323955;28;20037;-55
2023/03/29 23:33:24;;;;;;;2.63;1.63;;;15.40;70.70;;;;;;10323956;28;20486;-55
2023/03/29 23:38:26;;;;;;;3.40;1.75;;;15.40;70.80;;;;;;10323981;28;20049;-55
2023/03/29 23:43:32;;;;;;;3.42;2.47;;;15.40;70.70;;;;;;10323266;28;20031;-54
2023/03/29 23:48:33;;;;;;;2.70;2.13;;;15.40;70.70;;;;;;10323699;28;20030;-55
2023/03/29 23:53:34;;;;;;;2.10;1.60;;;15.40;70.70;;;;;;10326495;28;20034;-54
2023/03/29 23:58:36;;;;;;;2.88;1.65;;;15.40;70.70;;;;;;10332539;28;20105;-56
